Beaufort, South Carolina
Current Conditions -  °F | °C
As of 4:15 PM on Thursday 27 Nov 2014 (Local Time) from KARW Reporting Station
Scattered Clouds Scattered Clouds  
Wind Chill: 54°   Ceiling: Unl
Heat Index: 54°   Visibility: 7mi
Dew Point: 34°   Wind: 12mph
Humidity: 47%   Direction: 300°WNW
Pressure: 30.17"   Gusts: 22mph
Location:  32.43°N, 80.67°W
Report Text: KARW 272115Z AUTO 30010G19KT 7SM SCT060 12/01 A3017 RMK AO2
Loading
Personal Weather Stations






























Interactive Weather Map New forecast layout! Learn more

10-Day Weather Forecast

Advertisements
Track Severe Weather on mobile